sensor_id;sensor_type;location;lat;lon;timestamp;P1;durP1;ratioP1;P2;durP2;ratioP2
10403;SDS011;5248;47.374;8.486;2023-07-22T00:01:09;4.45;;;2.20;;
10403;SDS011;5248;47.374;8.486;2023-07-22T00:03:37;4.35;;;2.35;;
10403;SDS011;5248;47.374;8.486;2023-07-22T00:06:04;3.40;;;2.50;;
10403;SDS011;5248;47.374;8.486;2023-07-22T00:08:31;4.78;;;3.00;;
10403;SDS011;5248;47.374;8.486;2023-07-22T00:10:59;2.63;;;2.42;;
10403;SDS011;5248;47.374;8.486;2023-07-22T00:13:26;4.10;;;3.03;;
10403;SDS011;5248;47.374;8.486;2023-07-22T00:15:52;4.47;;;2.35;;
10403;SDS011;5248;47.374;8.486;2023-07-22T00:18:19;2.75;;;2.55;;
10403;SDS011;5248;47.374;8.486;2023-07-22T00:20:45;3.17;;;2.67;;
10403;SDS011;5248;47.374;8.486;2023-07-22T00:23:15;2.70;;;2.50;;
10403;SDS011;5248;47.374;8.486;2023-07-22T00:25:42;2.55;;;2.35;;
10403;SDS011;5248;47.374;8.486;2023-07-22T00:28:12;4.13;;;2.70;;
10403;SDS011;5248;47.374;8.486;2023-07-22T00:30:38;2.95;;;2.63;;
10403;SDS011;5248;47.374;8.486;2023-07-22T00:33:05;2.95;;;2.75;;
10403;SDS011;5248;47.374;8.486;2023-07-22T00:35:31;3.97;;;2.20;;
10403;SDS011;5248;47.374;8.486;2023-07-22T00:37:58;2.85;;;2.60;;
10403;SDS011;5248;47.374;8.486;2023-07-22T00:40:24;4.20;;;2.83;;
10403;SDS011;5248;47.374;8.486;2023-07-22T00:42:51;3.38;;;2.58;;
10403;SDS011;5248;47.374;8.486;2023-07-22T00:45:19;3.05;;;2.72;;
10403;SDS011;5248;47.374;8.486;2023-07-22T00:47:45;4.75;;;2.70;;
10403;SDS011;5248;47.374;8.486;2023-07-22T00:50:12;4.13;;;3.15;;
10403;SDS011;5248;47.374;8.486;2023-07-22T00:52:39;5.13;;;3.10;;
10403;SDS011;5248;47.374;8.486;2023-07-22T00:55:05;3.35;;;3.13;;
10403;SDS011;5248;47.374;8.486;2023-07-22T00:57:32;3.00;;;2.80;;
10403;SDS011;5248;47.374;8.486;2023-07-22T00:59:59;3.00;;;2.80;;
10403;SDS011;5248;47.374;8.486;2023-07-22T01:02:27;3.72;;;3.30;;
10403;SDS011;5248;47.374;8.486;2023-07-22T01:04:54;3.70;;;3.38;;
10403;SDS011;5248;47.374;8.486;2023-07-22T01:07:20;3.85;;;3.13;;
10403;SDS011;5248;47.374;8.486;2023-07-22T01:09:48;4.07;;;3.40;;
10403;SDS011;5248;47.374;8.486;2023-07-22T01:12:14;3.30;;;3.10;;
10403;SDS011;5248;47.374;8.486;2023-07-22T01:14:41;3.35;;;2.97;;
10403;SDS011;5248;47.374;8.486;2023-07-22T01:17:08;4.43;;;3.13;;
10403;SDS011;5248;47.374;8.486;2023-07-22T01:19:37;3.42;;;3.20;;
10403;SDS011;5248;47.374;8.486;2023-07-22T01:22:03;3.28;;;3.00;;
10403;SDS011;5248;47.374;8.486;2023-07-22T01:24:34;2.92;;;2.72;;
10403;SDS011;5248;47.374;8.486;2023-07-22T01:27:00;3.47;;;3.17;;
10403;SDS011;5248;47.374;8.486;2023-07-22T01:29:28;3.20;;;2.92;;
10403;SDS011;5248;47.374;8.486;2023-07-22T01:31:55;3.60;;;3.20;;
10403;SDS011;5248;47.374;8.486;2023-07-22T01:34:21;3.67;;;3.35;;
10403;SDS011;5248;47.374;8.486;2023-07-22T01:36:49;3.67;;;3.38;;
10403;SDS011;5248;47.374;8.486;2023-07-22T01:39:16;3.83;;;2.97;;
10403;SDS011;5248;47.374;8.486;2023-07-22T01:41:44;3.80;;;2.90;;
10403;SDS011;5248;47.374;8.486;2023-07-22T01:44:11;3.40;;;3.10;;
10403;SDS011;5248;47.374;8.486;2023-07-22T01:46:37;4.07;;;3.33;;
10403;SDS011;5248;47.374;8.486;2023-07-22T01:49:05;4.05;;;3.13;;
10403;SDS011;5248;47.374;8.486;2023-07-22T01:51:33;3.22;;;3.03;;
10403;SDS011;5248;47.374;8.486;2023-07-22T01:54:00;3.30;;;2.65;;
10403;SDS011;5248;47.374;8.486;2023-07-22T01:56:26;6.03;;;3.50;;
10403;SDS011;5248;47.374;8.486;2023-07-22T01:58:55;4.20;;;3.10;;
10403;SDS011;5248;47.374;8.486;2023-07-22T02:01:21;5.40;;;3.00;;
10403;SDS011;5248;47.374;8.486;2023-07-22T02:03:49;3.92;;;3.25;;
10403;SDS011;5248;47.374;8.486;2023-07-22T02:06:15;3.25;;;3.00;;
10403;SDS011;5248;47.374;8.486;2023-07-22T02:08:42;4.13;;;3.40;;
10403;SDS011;5248;47.374;8.486;2023-07-22T02:11:08;3.70;;;3.50;;
10403;SDS011;5248;47.374;8.486;2023-07-22T02:13:35;4.07;;;2.90;;
10403;SDS011;5248;47.374;8.486;2023-07-22T02:16:03;3.17;;;2.92;;
10403;SDS011;5248;47.374;8.486;2023-07-22T02:18:30;8.13;;;3.38;;
10403;SDS011;5248;47.374;8.486;2023-07-22T02:20:56;3.63;;;3.33;;
10403;SDS011;5248;47.374;8.486;2023-07-22T02:23:23;4.75;;;3.22;;
10403;SDS011;5248;47.374;8.486;2023-07-22T02:25:50;5.13;;;3.13;;
10403;SDS011;5248;47.374;8.486;2023-07-22T02:28:17;4.63;;;3.03;;
10403;SDS011;5248;47.374;8.486;2023-07-22T02:30:46;4.03;;;3.15;;
10403;SDS011;5248;47.374;8.486;2023-07-22T02:33:14;5.07;;;3.03;;
10403;SDS011;5248;47.374;8.486;2023-07-22T02:35:40;5.72;;;3.05;;
10403;SDS011;5248;47.374;8.486;2023-07-22T02:38:07;4.03;;;3.10;;
10403;SDS011;5248;47.374;8.486;2023-07-22T02:40:34;4.38;;;2.78;;
10403;SDS011;5248;47.374;8.486;2023-07-22T02:43:00;3.95;;;3.30;;
10403;SDS011;5248;47.374;8.486;2023-07-22T02:45:27;4.20;;;3.20;;
10403;SDS011;5248;47.374;8.486;2023-07-22T02:47:53;2.90;;;2.70;;
10403;SDS011;5248;47.374;8.486;2023-07-22T02:50:21;3.58;;;2.63;;
10403;SDS011;5248;47.374;8.486;2023-07-22T02:52:48;3.03;;;2.75;;
10403;SDS011;5248;47.374;8.486;2023-07-22T02:55:15;3.70;;;2.63;;
10403;SDS011;5248;47.374;8.486;2023-07-22T02:57:43;4.10;;;2.88;;
10403;SDS011;5248;47.374;8.486;2023-07-22T03:00:11;2.78;;;2.53;;
10403;SDS011;5248;47.374;8.486;2023-07-22T03:02:42;3.15;;;2.85;;
10403;SDS011;5248;47.374;8.486;2023-07-22T03:05:09;2.83;;;2.63;;
10403;SDS011;5248;47.374;8.486;2023-07-22T03:07:37;3.95;;;2.90;;
10403;SDS011;5248;47.374;8.486;2023-07-22T03:10:04;3.50;;;2.78;;
10403;SDS011;5248;47.374;8.486;2023-07-22T03:12:32;23.33;;;3.85;;
10403;SDS011;5248;47.374;8.486;2023-07-22T03:14:58;3.72;;;3.13;;
10403;SDS011;5248;47.374;8.486;2023-07-22T03:17:25;3.80;;;2.92;;
10403;SDS011;5248;47.374;8.486;2023-07-22T03:19:52;3.00;;;2.80;;
10403;SDS011;5248;47.374;8.486;2023-07-22T03:22:19;5.47;;;2.92;;
10403;SDS011;5248;47.374;8.486;2023-07-22T03:24:46;4.85;;;2.90;;
10403;SDS011;5248;47.374;8.486;2023-07-22T03:27:13;5.85;;;3.08;;
10403;SDS011;5248;47.374;8.486;2023-07-22T03:29:42;3.90;;;2.90;;
10403;SDS011;5248;47.374;8.486;2023-07-22T03:32:08;4.85;;;3.00;;
10403;SDS011;5248;47.374;8.486;2023-07-22T03:34:35;3.45;;;3.15;;
10403;SDS011;5248;47.374;8.486;2023-07-22T03:37:02;3.13;;;2.80;;
10403;SDS011;5248;47.374;8.486;2023-07-22T03:39:28;5.18;;;2.90;;
10403;SDS011;5248;47.374;8.486;2023-07-22T03:41:56;3.05;;;2.83;;
10403;SDS011;5248;47.374;8.486;2023-07-22T03:44:22;3.05;;;2.80;;
10403;SDS011;5248;47.374;8.486;2023-07-22T03:46:51;3.05;;;2.70;;
10403;SDS011;5248;47.374;8.486;2023-07-22T03:49:17;3.53;;;2.63;;
10403;SDS011;5248;47.374;8.486;2023-07-22T03:51:45;3.15;;;2.88;;
10403;SDS011;5248;47.374;8.486;2023-07-22T03:54:11;5.53;;;3.03;;
10403;SDS011;5248;47.374;8.486;2023-07-22T03:56:39;2.90;;;2.70;;
10403;SDS011;5248;47.374;8.486;2023-07-22T03:59:08;3.33;;;3.05;;
10403;SDS011;5248;47.374;8.486;2023-07-22T04:01:34;4.82;;;2.70;;
10403;SDS011;5248;47.374;8.486;2023-07-22T04:04:01;3.58;;;3.03;;
10403;SDS011;5248;47.374;8.486;2023-07-22T04:06:27;3.20;;;2.90;;
10403;SDS011;5248;47.374;8.486;2023-07-22T04:08:54;3.55;;;3.25;;
10403;SDS011;5248;47.374;8.486;2023-07-22T04:11:20;3.30;;;3.00;;
10403;SDS011;5248;47.374;8.486;2023-07-22T04:13:47;4.47;;;3.00;;
10403;SDS011;5248;47.374;8.486;2023-07-22T04:16:15;3.25;;;2.95;;
10403;SDS011;5248;47.374;8.486;2023-07-22T04:18:41;4.25;;;2.90;;
10403;SDS011;5248;47.374;8.486;2023-07-22T04:21:08;3.17;;;2.95;;
10403;SDS011;5248;47.374;8.486;2023-07-22T04:23:34;3.17;;;2.88;;
10403;SDS011;5248;47.374;8.486;2023-07-22T04:26:02;5.15;;;3.20;;
10403;SDS011;5248;47.374;8.486;2023-07-22T04:28:32;4.07;;;2.80;;
10403;SDS011;5248;47.374;8.486;2023-07-22T04:30:59;4.00;;;3.30;;
10403;SDS011;5248;47.374;8.486;2023-07-22T04:33:27;3.70;;;3.35;;
10403;SDS011;5248;47.374;8.486;2023-07-22T04:35:55;3.10;;;2.80;;
10403;SDS011;5248;47.374;8.486;2023-07-22T04:38:23;3.03;;;2.83;;
10403;SDS011;5248;47.374;8.486;2023-07-22T04:40:49;3.35;;;3.05;;
10403;SDS011;5248;47.374;8.486;2023-07-22T04:43:16;3.42;;;3.10;;
10403;SDS011;5248;47.374;8.486;2023-07-22T04:45:43;3.42;;;3.13;;
10403;SDS011;5248;47.374;8.486;2023-07-22T04:48:12;3.03;;;2.83;;
10403;SDS011;5248;47.374;8.486;2023-07-22T04:50:44;2.80;;;2.60;;
10403;SDS011;5248;47.374;8.486;2023-07-22T04:53:11;3.33;;;3.10;;
10403;SDS011;5248;47.374;8.486;2023-07-22T04:55:39;6.97;;;3.00;;
10403;SDS011;5248;47.374;8.486;2023-07-22T04:58:05;3.30;;;3.00;;
10403;SDS011;5248;47.374;8.486;2023-07-22T05:00:32;3.97;;;3.08;;
10403;SDS011;5248;47.374;8.486;2023-07-22T05:02:58;3.85;;;2.95;;
10403;SDS011;5248;47.374;8.486;2023-07-22T05:05:25;3.40;;;3.10;;
10403;SDS011;5248;47.374;8.486;2023-07-22T05:07:53;3.40;;;3.10;;
10403;SDS011;5248;47.374;8.486;2023-07-22T05:10:19;4.35;;;2.90;;
10403;SDS011;5248;47.374;8.486;2023-07-22T05:12:46;6.90;;;3.05;;
10403;SDS011;5248;47.374;8.486;2023-07-22T05:15:13;5.25;;;3.40;;
10403;SDS011;5248;47.374;8.486;2023-07-22T05:17:40;3.63;;;3.33;;
10403;SDS011;5248;47.374;8.486;2023-07-22T05:20:07;3.97;;;3.03;;
10403;SDS011;5248;47.374;8.486;2023-07-22T05:22:35;3.20;;;3.00;;
10403;SDS011;5248;47.374;8.486;2023-07-22T05:25:04;3.20;;;2.90;;
10403;SDS011;5248;47.374;8.486;2023-07-22T05:27:31;6.93;;;3.22;;
10403;SDS011;5248;47.374;8.486;2023-07-22T05:29:58;4.15;;;3.40;;
10403;SDS011;5248;47.374;8.486;2023-07-22T05:32:25;4.10;;;3.72;;
10403;SDS011;5248;47.374;8.486;2023-07-22T05:34:51;5.63;;;3.50;;
10403;SDS011;5248;47.374;8.486;2023-07-22T05:37:18;4.97;;;3.53;;
10403;SDS011;5248;47.374;8.486;2023-07-22T05:39:44;5.03;;;4.03;;
10403;SDS011;5248;47.374;8.486;2023-07-22T05:42:12;5.15;;;3.83;;
10403;SDS011;5248;47.374;8.486;2023-07-22T05:44:39;4.93;;;3.60;;
10403;SDS011;5248;47.374;8.486;2023-07-22T05:47:05;3.65;;;3.35;;
10403;SDS011;5248;47.374;8.486;2023-07-22T05:49:33;5.20;;;3.90;;
10403;SDS011;5248;47.374;8.486;2023-07-22T05:51:59;4.00;;;3.70;;
10403;SDS011;5248;47.374;8.486;2023-07-22T05:54:26;3.85;;;3.55;;
10403;SDS011;5248;47.374;8.486;2023-07-22T05:56:52;3.88;;;3.58;;
10403;SDS011;5248;47.374;8.486;2023-07-22T05:59:20;3.72;;;3.45;;
10403;SDS011;5248;47.374;8.486;2023-07-22T06:01:47;3.90;;;3.60;;
10403;SDS011;5248;47.374;8.486;2023-07-22T06:04:14;4.07;;;3.78;;
10403;SDS011;5248;47.374;8.486;2023-07-22T06:06:40;3.78;;;3.47;;
10403;SDS011;5248;47.374;8.486;2023-07-22T06:09:07;3.92;;;3.63;;
10403;SDS011;5248;47.374;8.486;2023-07-22T06:11:33;9.35;;;4.38;;
10403;SDS011;5248;47.374;8.486;2023-07-22T06:14:00;3.78;;;3.47;;
10403;SDS011;5248;47.374;8.486;2023-07-22T06:16:28;3.72;;;3.45;;
10403;SDS011;5248;47.374;8.486;2023-07-22T06:18:55;4.13;;;3.72;;
10403;SDS011;5248;47.374;8.486;2023-07-22T06:21:21;6.82;;;3.65;;
10403;SDS011;5248;47.374;8.486;2023-07-22T06:23:48;3.80;;;3.50;;
10403;SDS011;5248;47.374;8.486;2023-07-22T06:26:15;3.80;;;3.30;;
10403;SDS011;5248;47.374;8.486;2023-07-22T06:28:41;5.32;;;3.65;;
10403;SDS011;5248;47.374;8.486;2023-07-22T06:31:08;4.13;;;3.55;;
10403;SDS011;5248;47.374;8.486;2023-07-22T06:33:36;4.32;;;3.17;;
10403;SDS011;5248;47.374;8.486;2023-07-22T06:36:03;3.45;;;3.00;;
10403;SDS011;5248;47.374;8.486;2023-07-22T06:38:31;3.33;;;3.13;;
10403;SDS011;5248;47.374;8.486;2023-07-22T06:40:57;3.88;;;3.50;;
10403;SDS011;5248;47.374;8.486;2023-07-22T06:43:23;4.05;;;3.65;;
10403;SDS011;5248;47.374;8.486;2023-07-22T06:45:50;4.00;;;3.30;;
10403;SDS011;5248;47.374;8.486;2023-07-22T06:48:16;4.22;;;3.35;;
10403;SDS011;5248;47.374;8.486;2023-07-22T06:50:48;3.42;;;3.22;;
10403;SDS011;5248;47.374;8.486;2023-07-22T06:53:14;3.88;;;3.17;;
10403;SDS011;5248;47.374;8.486;2023-07-22T06:55:47;3.05;;;2.78;;
10403;SDS011;5248;47.374;8.486;2023-07-22T06:58:14;3.17;;;2.60;;
10403;SDS011;5248;47.374;8.486;2023-07-22T07:00:41;3.00;;;2.80;;
10403;SDS011;5248;47.374;8.486;2023-07-22T07:03:07;3.35;;;2.95;;
10403;SDS011;5248;47.374;8.486;2023-07-22T07:05:34;2.90;;;2.70;;
10403;SDS011;5248;47.374;8.486;2023-07-22T07:08:02;3.35;;;2.65;;
10403;SDS011;5248;47.374;8.486;2023-07-22T07:10:29;5.15;;;2.85;;
10403;SDS011;5248;47.374;8.486;2023-07-22T07:12:55;4.13;;;2.72;;
10403;SDS011;5248;47.374;8.486;2023-07-22T07:15:23;3.50;;;2.78;;
10403;SDS011;5248;47.374;8.486;2023-07-22T07:17:50;3.05;;;2.80;;
10403;SDS011;5248;47.374;8.486;2023-07-22T07:20:16;2.90;;;2.70;;
10403;SDS011;5248;47.374;8.486;2023-07-22T07:22:43;3.88;;;2.47;;
10403;SDS011;5248;47.374;8.486;2023-07-22T07:25:11;2.63;;;2.42;;
10403;SDS011;5248;47.374;8.486;2023-07-22T07:27:40;2.65;;;2.45;;
10403;SDS011;5248;47.374;8.486;2023-07-22T07:30:07;2.60;;;2.40;;
10403;SDS011;5248;47.374;8.486;2023-07-22T07:32:35;2.60;;;2.40;;
10403;SDS011;5248;47.374;8.486;2023-07-22T07:35:02;2.70;;;2.50;;
10403;SDS011;5248;47.374;8.486;2023-07-22T07:37:29;2.50;;;2.30;;
10403;SDS011;5248;47.374;8.486;2023-07-22T07:39:55;2.40;;;2.22;;
10403;SDS011;5248;47.374;8.486;2023-07-22T07:42:26;2.42;;;2.22;;
10403;SDS011;5248;47.374;8.486;2023-07-22T07:44:52;2.63;;;2.42;;
10403;SDS011;5248;47.374;8.486;2023-07-22T07:47:19;2.95;;;2.42;;
10403;SDS011;5248;47.374;8.486;2023-07-22T07:49:45;2.88;;;2.40;;
10403;SDS011;5248;47.374;8.486;2023-07-22T07:52:12;2.58;;;2.38;;
10403;SDS011;5248;47.374;8.486;2023-07-22T07:54:39;2.80;;;2.60;;
10403;SDS011;5248;47.374;8.486;2023-07-22T07:57:05;3.33;;;2.22;;
10403;SDS011;5248;47.374;8.486;2023-07-22T07:59:34;3.95;;;2.95;;
10403;SDS011;5248;47.374;8.486;2023-07-22T08:02:01;3.45;;;3.15;;
10403;SDS011;5248;47.374;8.486;2023-07-22T08:04:29;2.70;;;2.50;;
10403;SDS011;5248;47.374;8.486;2023-07-22T08:06:55;2.60;;;2.40;;
10403;SDS011;5248;47.374;8.486;2023-07-22T08:09:22;2.30;;;2.10;;
10403;SDS011;5248;47.374;8.486;2023-07-22T08:11:49;2.20;;;2.10;;
10403;SDS011;5248;47.374;8.486;2023-07-22T08:14:15;2.35;;;2.22;;
10403;SDS011;5248;47.374;8.486;2023-07-22T08:16:43;3.42;;;2.28;;
10403;SDS011;5248;47.374;8.486;2023-07-22T08:19:09;3.55;;;2.53;;
10403;SDS011;5248;47.374;8.486;2023-07-22T08:21:37;2.95;;;2.30;;
10403;SDS011;5248;47.374;8.486;2023-07-22T08:24:05;2.33;;;2.13;;
10403;SDS011;5248;47.374;8.486;2023-07-22T08:26:32;2.88;;;2.30;;
10403;SDS011;5248;47.374;8.486;2023-07-22T08:28:58;2.63;;;2.42;;
10403;SDS011;5248;47.374;8.486;2023-07-22T08:31:25;2.17;;;1.95;;
10403;SDS011;5248;47.374;8.486;2023-07-22T08:33:53;2.90;;;2.33;;
10403;SDS011;5248;47.374;8.486;2023-07-22T08:36:19;2.45;;;1.90;;
10403;SDS011;5248;47.374;8.486;2023-07-22T08:38:45;2.40;;;2.22;;
10403;SDS011;5248;47.374;8.486;2023-07-22T08:41:13;2.45;;;2.25;;
10403;SDS011;5248;47.374;8.486;2023-07-22T08:43:41;2.22;;;2.10;;
10403;SDS011;5248;47.374;8.486;2023-07-22T08:46:07;2.20;;;2.10;;
10403;SDS011;5248;47.374;8.486;2023-07-22T08:48:35;2.28;;;2.08;;
10403;SDS011;5248;47.374;8.486;2023-07-22T08:51:06;2.50;;;2.30;;
10403;SDS011;5248;47.374;8.486;2023-07-22T08:53:36;2.40;;;2.20;;
10403;SDS011;5248;47.374;8.486;2023-07-22T08:56:03;1.90;;;1.80;;
10403;SDS011;5248;47.374;8.486;2023-07-22T08:58:30;2.38;;;2.17;;
10403;SDS011;5248;47.374;8.486;2023-07-22T09:00:57;3.55;;;2.25;;
10403;SDS011;5248;47.374;8.486;2023-07-22T09:03:24;2.10;;;2.00;;
10403;SDS011;5248;47.374;8.486;2023-07-22T09:05:51;1.95;;;1.85;;
10403;SDS011;5248;47.374;8.486;2023-07-22T09:08:19;2.03;;;1.92;;
10403;SDS011;5248;47.374;8.486;2023-07-22T09:10:46;2.17;;;1.98;;
10403;SDS011;5248;47.374;8.486;2023-07-22T09:13:12;2.45;;;2.17;;
10403;SDS011;5248;47.374;8.486;2023-07-22T09:15:40;2.63;;;2.38;;
10403;SDS011;5248;47.374;8.486;2023-07-22T09:18:07;2.55;;;2.35;;
10403;SDS011;5248;47.374;8.486;2023-07-22T09:20:33;3.00;;;1.73;;
10403;SDS011;5248;47.374;8.486;2023-07-22T09:23:00;2.40;;;2.30;;
10403;SDS011;5248;47.374;8.486;2023-07-22T09:25:28;3.55;;;2.80;;
10403;SDS011;5248;47.374;8.486;2023-07-22T09:27:55;4.22;;;2.83;;
10403;SDS011;5248;47.374;8.486;2023-07-22T09:30:24;2.85;;;2.35;;
10403;SDS011;5248;47.374;8.486;2023-07-22T09:32:52;2.97;;;2.50;;
10403;SDS011;5248;47.374;8.486;2023-07-22T09:35:19;3.10;;;2.70;;
10403;SDS011;5248;47.374;8.486;2023-07-22T09:37:46;3.45;;;2.70;;
10403;SDS011;5248;47.374;8.486;2023-07-22T09:40:13;3.22;;;2.90;;
10403;SDS011;5248;47.374;8.486;2023-07-22T09:42:44;5.13;;;2.70;;
10403;SDS011;5248;47.374;8.486;2023-07-22T09:45:11;3.10;;;2.80;;
10403;SDS011;5248;47.374;8.486;2023-07-22T09:47:41;3.80;;;3.15;;
10403;SDS011;5248;47.374;8.486;2023-07-22T09:50:12;2.88;;;2.70;;
10403;SDS011;5248;47.374;8.486;2023-07-22T09:52:42;3.08;;;2.78;;
10403;SDS011;5248;47.374;8.486;2023-07-22T09:55:10;2.85;;;2.65;;
10403;SDS011;5248;47.374;8.486;2023-07-22T09:57:37;3.40;;;3.10;;
10403;SDS011;5248;47.374;8.486;2023-07-22T10:00:07;6.63;;;3.10;;
10403;SDS011;5248;47.374;8.486;2023-07-22T10:02:35;2.70;;;2.60;;
10403;SDS011;5248;47.374;8.486;2023-07-22T10:05:02;2.92;;;2.72;;
10403;SDS011;5248;47.374;8.486;2023-07-22T10:07:30;2.35;;;2.20;;
10403;SDS011;5248;47.374;8.486;2023-07-22T10:09:59;8.93;;;2.50;;
10403;SDS011;5248;47.374;8.486;2023-07-22T10:12:26;2.90;;;2.70;;
10403;SDS011;5248;47.374;8.486;2023-07-22T10:14:53;2.65;;;2.45;;
10403;SDS011;5248;47.374;8.486;2023-07-22T10:17:21;2.65;;;2.42;;
10403;SDS011;5248;47.374;8.486;2023-07-22T10:19:48;2.67;;;2.35;;
10403;SDS011;5248;47.374;8.486;2023-07-22T10:22:16;3.33;;;2.47;;
10403;SDS011;5248;47.374;8.486;2023-07-22T10:24:43;2.50;;;2.30;;
10403;SDS011;5248;47.374;8.486;2023-07-22T10:27:10;2.95;;;2.30;;
10403;SDS011;5248;47.374;8.486;2023-07-22T10:29:36;4.18;;;2.45;;
10403;SDS011;5248;47.374;8.486;2023-07-22T10:32:04;3.30;;;2.42;;
10403;SDS011;5248;47.374;8.486;2023-07-22T10:34:32;2.35;;;2.20;;
10403;SDS011;5248;47.374;8.486;2023-07-22T10:36:59;2.85;;;2.15;;
10403;SDS011;5248;47.374;8.486;2023-07-22T10:39:26;4.10;;;2.30;;
10403;SDS011;5248;47.374;8.486;2023-07-22T10:41:57;2.13;;;1.95;;
10403;SDS011;5248;47.374;8.486;2023-07-22T10:44:26;2.67;;;2.45;;
10403;SDS011;5248;47.374;8.486;2023-07-22T10:46:56;2.25;;;2.05;;
10403;SDS011;5248;47.374;8.486;2023-07-22T10:49:24;2.05;;;1.90;;
10403;SDS011;5248;47.374;8.486;2023-07-22T10:51:52;1.95;;;1.85;;
10403;SDS011;5248;47.374;8.486;2023-07-22T10:54:30;2.40;;;2.25;;
10403;SDS011;5248;47.374;8.486;2023-07-22T10:57:02;2.08;;;1.98;;
10403;SDS011;5248;47.374;8.486;2023-07-22T10:59:32;1.90;;;1.80;;
10403;SDS011;5248;47.374;8.486;2023-07-22T11:01:59;2.22;;;2.13;;
10403;SDS011;5248;47.374;8.486;2023-07-22T11:04:26;2.28;;;2.10;;
10403;SDS011;5248;47.374;8.486;2023-07-22T11:06:58;2.13;;;2.03;;
10403;SDS011;5248;47.374;8.486;2023-07-22T11:09:35;2.28;;;2.08;;
10403;SDS011;5248;47.374;8.486;2023-07-22T11:12:05;2.40;;;2.20;;
10403;SDS011;5248;47.374;8.486;2023-07-22T11:14:34;2.20;;;2.08;;
10403;SDS011;5248;47.374;8.486;2023-07-22T11:17:01;2.67;;;2.47;;
10403;SDS011;5248;47.374;8.486;2023-07-22T11:19:29;2.28;;;2.15;;
10403;SDS011;5248;47.374;8.486;2023-07-22T11:21:58;2.25;;;2.15;;
10403;SDS011;5248;47.374;8.486;2023-07-22T11:24:26;1.83;;;1.73;;
10403;SDS011;5248;47.374;8.486;2023-07-22T11:26:53;2.70;;;2.55;;
10403;SDS011;5248;47.374;8.486;2023-07-22T11:29:20;2.08;;;1.98;;
10403;SDS011;5248;47.374;8.486;2023-07-22T11:31:47;2.60;;;2.40;;
10403;SDS011;5248;47.374;8.486;2023-07-22T11:34:15;2.50;;;2.30;;
10403;SDS011;5248;47.374;8.486;2023-07-22T11:36:42;2.22;;;2.03;;
10403;SDS011;5248;47.374;8.486;2023-07-22T11:39:11;2.85;;;1.80;;
10403;SDS011;5248;47.374;8.486;2023-07-22T11:41:40;2.50;;;2.30;;
10403;SDS011;5248;47.374;8.486;2023-07-22T11:44:07;2.42;;;2.10;;
10403;SDS011;5248;47.374;8.486;2023-07-22T11:46:35;1.90;;;1.80;;
10403;SDS011;5248;47.374;8.486;2023-07-22T11:49:02;1.80;;;1.70;;
10403;SDS011;5248;47.374;8.486;2023-07-22T11:51:28;2.05;;;1.85;;
10403;SDS011;5248;47.374;8.486;2023-07-22T11:53:55;1.70;;;1.60;;
10403;SDS011;5248;47.374;8.486;2023-07-22T11:56:23;2.20;;;1.98;;
10403;SDS011;5248;47.374;8.486;2023-07-22T11:58:51;1.65;;;1.55;;
10403;SDS011;5248;47.374;8.486;2023-07-22T12:01:18;2.42;;;1.80;;
10403;SDS011;5248;47.374;8.486;2023-07-22T12:03:46;1.85;;;1.67;;
10403;SDS011;5248;47.374;8.486;2023-07-22T12:06:13;2.03;;;1.92;;
10403;SDS011;5248;47.374;8.486;2023-07-22T12:08:44;2.40;;;2.20;;
10403;SDS011;5248;47.374;8.486;2023-07-22T12:11:17;2.30;;;2.13;;
10403;SDS011;5248;47.374;8.486;2023-07-22T12:13:45;2.65;;;2.40;;
10403;SDS011;5248;47.374;8.486;2023-07-22T12:16:20;2.40;;;2.20;;
10403;SDS011;5248;47.374;8.486;2023-07-22T12:18:47;2.25;;;2.05;;
10403;SDS011;5248;47.374;8.486;2023-07-22T12:21:14;2.28;;;2.17;;
10403;SDS011;5248;47.374;8.486;2023-07-22T12:23:40;2.00;;;1.90;;
10403;SDS011;5248;47.374;8.486;2023-07-22T12:26:08;1.92;;;1.83;;
10403;SDS011;5248;47.374;8.486;2023-07-22T12:28:34;1.90;;;1.80;;
10403;SDS011;5248;47.374;8.486;2023-07-22T12:31:02;2.08;;;1.73;;
10403;SDS011;5248;47.374;8.486;2023-07-22T12:33:28;2.17;;;2.08;;
10403;SDS011;5248;47.374;8.486;2023-07-22T12:35:56;2.00;;;1.90;;
10403;SDS011;5248;47.374;8.486;2023-07-22T12:38:23;2.58;;;1.98;;
10403;SDS011;5248;47.374;8.486;2023-07-22T12:40:49;2.00;;;1.85;;
10403;SDS011;5248;47.374;8.486;2023-07-22T12:43:16;2.67;;;2.30;;
10403;SDS011;5248;47.374;8.486;2023-07-22T12:45:42;2.30;;;2.10;;
10403;SDS011;5248;47.374;8.486;2023-07-22T12:48:10;2.35;;;1.95;;
10403;SDS011;5248;47.374;8.486;2023-07-22T12:50:36;2.05;;;1.90;;
10403;SDS011;5248;47.374;8.486;2023-07-22T12:53:03;1.95;;;1.85;;
10403;SDS011;5248;47.374;8.486;2023-07-22T12:55:29;2.17;;;2.08;;
10403;SDS011;5248;47.374;8.486;2023-07-22T12:57:56;3.50;;;2.38;;
10403;SDS011;5248;47.374;8.486;2023-07-22T13:00:22;2.42;;;2.22;;
10403;SDS011;5248;47.374;8.486;2023-07-22T13:02:48;2.28;;;2.17;;
10403;SDS011;5248;47.374;8.486;2023-07-22T13:05:16;2.67;;;2.47;;
10403;SDS011;5248;47.374;8.486;2023-07-22T13:07:44;2.70;;;2.50;;
10403;SDS011;5248;47.374;8.486;2023-07-22T13:10:10;2.35;;;2.13;;
10403;SDS011;5248;47.374;8.486;2023-07-22T13:12:40;2.55;;;2.38;;
10403;SDS011;5248;47.374;8.486;2023-07-22T13:15:06;2.25;;;2.15;;
10403;SDS011;5248;47.374;8.486;2023-07-22T13:17:33;2.80;;;2.60;;
10403;SDS011;5248;47.374;8.486;2023-07-22T13:20:00;2.40;;;2.30;;
10403;SDS011;5248;47.374;8.486;2023-07-22T13:22:27;2.40;;;2.20;;
10403;SDS011;5248;47.374;8.486;2023-07-22T13:24:54;2.85;;;2.65;;
10403;SDS011;5248;47.374;8.486;2023-07-22T13:27:20;2.88;;;2.28;;
10403;SDS011;5248;47.374;8.486;2023-07-22T13:29:47;2.20;;;2.10;;
10403;SDS011;5248;47.374;8.486;2023-07-22T13:32:13;2.80;;;2.60;;
10403;SDS011;5248;47.374;8.486;2023-07-22T13:34:40;2.45;;;2.25;;
10403;SDS011;5248;47.374;8.486;2023-07-22T13:37:06;2.22;;;1.90;;
10403;SDS011;5248;47.374;8.486;2023-07-22T13:39:34;3.33;;;2.50;;
10403;SDS011;5248;47.374;8.486;2023-07-22T13:42:00;2.30;;;2.20;;
10403;SDS011;5248;47.374;8.486;2023-07-22T13:44:27;2.30;;;2.20;;
10403;SDS011;5248;47.374;8.486;2023-07-22T13:46:53;2.65;;;2.33;;
10403;SDS011;5248;47.374;8.486;2023-07-22T13:49:19;2.63;;;2.42;;
10403;SDS011;5248;47.374;8.486;2023-07-22T13:51:46;3.38;;;2.42;;
10403;SDS011;5248;47.374;8.486;2023-07-22T13:54:13;2.60;;;2.40;;
10403;SDS011;5248;47.374;8.486;2023-07-22T13:56:42;2.45;;;2.25;;
10403;SDS011;5248;47.374;8.486;2023-07-22T13:59:10;2.80;;;2.60;;
10403;SDS011;5248;47.374;8.486;2023-07-22T14:01:37;2.33;;;2.22;;
10403;SDS011;5248;47.374;8.486;2023-07-22T14:04:03;2.90;;;2.40;;
10403;SDS011;5248;47.374;8.486;2023-07-22T14:06:30;2.28;;;2.17;;
10403;SDS011;5248;47.374;8.486;2023-07-22T14:08:57;2.45;;;2.25;;
10403;SDS011;5248;47.374;8.486;2023-07-22T14:11:23;2.33;;;2.22;;
10403;SDS011;5248;47.374;8.486;2023-07-22T14:13:51;2.40;;;2.30;;
10403;SDS011;5248;47.374;8.486;2023-07-22T14:16:18;3.25;;;2.40;;
10403;SDS011;5248;47.374;8.486;2023-07-22T14:18:44;2.55;;;2.35;;
10403;SDS011;5248;47.374;8.486;2023-07-22T14:21:11;2.40;;;2.30;;
10403;SDS011;5248;47.374;8.486;2023-07-22T14:23:37;2.58;;;2.38;;
10403;SDS011;5248;47.374;8.486;2023-07-22T14:26:04;2.50;;;2.30;;
10403;SDS011;5248;47.374;8.486;2023-07-22T14:28:30;2.47;;;2.35;;
10403;SDS011;5248;47.374;8.486;2023-07-22T14:30:58;2.22;;;2.13;;
10403;SDS011;5248;47.374;8.486;2023-07-22T14:33:24;2.28;;;2.17;;
10403;SDS011;5248;47.374;8.486;2023-07-22T14:35:51;1.90;;;1.80;;
10403;SDS011;5248;47.374;8.486;2023-07-22T14:38:17;2.30;;;2.20;;
10403;SDS011;5248;47.374;8.486;2023-07-22T14:40:43;2.00;;;1.90;;
10403;SDS011;5248;47.374;8.486;2023-07-22T14:43:10;1.90;;;1.80;;
10403;SDS011;5248;47.374;8.486;2023-07-22T14:45:36;2.50;;;2.30;;
10403;SDS011;5248;47.374;8.486;2023-07-22T14:48:05;2.22;;;2.05;;
10403;SDS011;5248;47.374;8.486;2023-07-22T14:50:31;2.58;;;2.38;;
10403;SDS011;5248;47.374;8.486;2023-07-22T14:52:58;2.65;;;2.45;;
10403;SDS011;5248;47.374;8.486;2023-07-22T14:55:26;2.47;;;2.28;;
10403;SDS011;5248;47.374;8.486;2023-07-22T14:57:52;2.70;;;2.50;;
10403;SDS011;5248;47.374;8.486;2023-07-22T15:00:18;2.90;;;2.40;;